• Join FlightAware (Why Join?)
  • Login
  • US Flag 
11:51PM EST


 

Airport Tracker/Info


-or-


 

Live Flight TrackerFlight Track Log ✈ CTL16 ✈ 12-Apr-2013 ✈ KHAO - KBKL

Flight Track Log - Related Links

Times and Time Zones

All times are in EDT time to prevent confusion due to time zone crossing. See the CTL16 flight status page for this flight to view local times or setup timezone preferences in your user account.

Time Position Orientation Groundspeed Altitude Reporting Facility
EDT Latitude Longitude Course Direction KTS MPH feet Rate Location/Type
08:24PM 39.4000 -84.4667 54° Northeast 154 177 1,800  Level Cincinnati TRACON
08:25PM 39.4206 -84.4297 54° Northeast 169 194 2,100 360 Climbing Indianapolis Center
08:26PM 39.4556 -84.3858 44° Northeast 188 216 2,500 360 Climbing Indianapolis Center
08:27PM 39.4928 -84.3394 44° Northeast 191 220 2,800 420 Climbing Indianapolis Center
08:28PM 39.5325 -84.2878 45° Northeast 192 221 3,400 480 Climbing Indianapolis Center
08:29PM 39.5678 -84.2383 47° Northeast 184 212 3,800 300 Climbing Indianapolis Center
08:30PM 39.6053 -84.1892 45° Northeast 192 221 4,100 540 Climbing Indianapolis Center
08:31PM 39.6403 -84.1450 44° Northeast 181 208 4,900 720 Climbing Indianapolis Center
08:32PM 39.6750 -84.1008 44° Northeast 168 193 5,600 660 Climbing Indianapolis Center
08:32PM 39.6836 -84.0908 42° Northeast 175 201 5,800 660 Climbing Indianapolis Center
08:33PM 39.7100 -84.0564 45° Northeast 173 199 6,300 660 Climbing Indianapolis Center
08:33PM 39.7186 -84.0461 43° Northeast 173 199 6,500 780 Climbing Indianapolis Center
08:34PM 39.7447 -84.0122 45° Northeast 168 193 7,100 540 Climbing Indianapolis Center
08:34PM 39.7519 -84.0025 46° Northeast 171 197 7,100 1,140 Level Indianapolis Center
08:35PM 39.7731 -83.9722 48° Northeast 125 144 8,300 1,320 Climbing Indianapolis Center
08:36PM 39.7806 -83.9642 40° Northeast 158 182 8,500 600 Climbing Indianapolis Center
08:36PM 39.8031 -83.9356 44° Northeast 156 180 8,900 480 Climbing Indianapolis Center
08:37PM 39.8106 -83.9275 40° Northeast 148 170 9,000 60 Climbing Indianapolis Center
08:37PM 39.8400 -83.8914 43° Northeast 193 222 9,000  Level Indianapolis Center
08:38PM 39.8481 -83.8797 48° Northeast 168 193 9,000  Level Indianapolis Center
08:38PM 39.8794 -83.8419 43° Northeast 199 229 9,000  Level Indianapolis Center
08:39PM 39.8897 -83.8278 47° Northeast 193 222 9,000  Level Indianapolis Center
08:39PM 39.9211 -83.7875 45° Northeast 202 232 9,000 60 Level Indianapolis Center
08:40PM 39.9306 -83.7767 41° Northeast 199 229 9,100  Climbing Indianapolis Center
08:40PM 39.9606 -83.7353 47° Northeast 204 235 9,000 -120 Descending Indianapolis Center
08:41PM 39.9711 -83.7225 43° Northeast 203 234 9,000 60 Level Indianapolis Center
08:41PM 40.0019 -83.6861 42° Northeast 201 231 9,100  Climbing Indianapolis Center
08:42PM 40.0125 -83.6719 46° Northeast 202 232 9,000 -120 Descending Indianapolis Center
08:42PM 40.0414 -83.6339 45° Northeast 197 227 9,000  Level Indianapolis Center
08:43PM 40.0519 -83.6208 43° Northeast 198 228 9,000  Level Indianapolis Center
08:43PM 40.0808 -83.5842 44° Northeast 199 229 9,000  Level Indianapolis Center
08:44PM 40.0919 -83.5694 45° Northeast 199 229 9,000 -120 Level Indianapolis Center
08:44PM 40.1200 -83.5344 44° Northeast 195 224 8,900  Descending Indianapolis Center
08:45PM 40.1378 -83.5103 46° Northeast 197 227 9,000  Climbing Indianapolis Center
08:45PM 40.1594 -83.4819 45° Northeast 192 221 8,900  Descending Indianapolis Center
08:46PM 40.1761 -83.4603 45° Northeast 193 222 9,000 60 Climbing Indianapolis Center
08:46PM 40.1986 -83.4322 44° Northeast 192 221 9,000 -120 Level Indianapolis Center
08:47PM 40.2156 -83.4108 44° Northeast 193 222 8,900 -120 Descending Indianapolis Center
08:47PM 40.2375 -83.3850 42° Northeast 192 221 8,900 60 Level Indianapolis Center
08:48PM 40.2542 -83.3625 46° Northeast 192 221 9,000 60 Climbing Indianapolis Center
08:49PM 40.2931 -83.3142 43° Northeast 190 219 9,000  Level Indianapolis Center
08:50PM 40.3317 -83.2653 44° Northeast 191 220 9,000  Level Indianapolis Center
08:51PM 40.3692 -83.2164 45° Northeast 189 217 9,100 -60 Climbing Indianapolis Center
08:52PM 40.4147 -83.1586 44° Northeast 193 222 8,900 -120 Descending Indianapolis Center
08:53PM 40.4542 -83.1086 44° Northeast 195 224 8,900  Level Indianapolis Center
08:54PM 40.4914 -83.0581 46° Northeast 192 221 9,000  Climbing Indianapolis Center
08:55PM 40.5264 -83.0125 45° Northeast 194 223 9,000  Level Indianapolis Center
08:56PM 40.5644 -82.9608 46° Northeast 194 223 9,000 -60 Level Indianapolis Center
08:57PM 40.6100 -82.9017 45° Northeast 196 226 8,900  Descending Indianapolis Center
08:58PM 40.6342 -82.8703 45° Northeast 190 219 9,000  Climbing Cleveland Center
08:59PM 40.6725 -82.8197 45° Northeast 190 219 8,900  Descending Cleveland Center
09:00PM 40.7114 -82.7636 48° Northeast 190 219 9,000  Climbing Cleveland Center
09:01PM 40.7497 -82.7128 45° Northeast 185 213 8,900 -60 Descending Cleveland Center
09:02PM 40.7881 -82.6644 44° Northeast 192 221 8,900  Level Cleveland Center
09:02PM 40.7989 -82.6511 43° Northeast 195 224 8,900 60 Level Cleveland Center
09:03PM 40.8267 -82.6108 48° Northeast 187 215 9,000  Climbing Cleveland Center
09:04PM 40.8608 -82.5653 45° Northeast 187 215 8,900  Descending Cleveland Center
09:05PM 40.8992 -82.5117 47° Northeast 187 215 9,000  Climbing Cleveland Center
09:06PM 40.9378 -82.4606 45° Northeast 187 215 8,900 -60 Descending Cleveland Center
09:07PM 40.9761 -82.4092 45° Northeast 187 215 8,900  Level Cleveland Center
09:08PM 41.0144 -82.3581 45° Northeast 187 215 8,900  Level Cleveland Center
09:08PM 41.0292 -82.3364 48° Northeast 200 230 8,900  Level Cleveland Center
09:09PM 41.0528 -82.3042 46° Northeast 187 215 8,900  Level Cleveland Center
09:10PM 41.0953 -82.2472 45° Northeast 195 224 8,900  Level Cleveland Center
09:11PM 41.1336 -82.1958 45° Northeast 195 224 9,000  Climbing Cleveland Center
09:12PM 41.1803 -82.1308 46° Northeast 198 228 8,900 -60 Descending Cleveland Center
09:13PM 41.2206 -82.0794 44° Northeast 196 226 8,900  Level Cleveland Center
09:14PM 41.2606 -82.0389 37° Northeast 186 214 9,000  Climbing Cleveland Center
09:15PM 41.3069 -82.0011 31° Northeast 191 220 8,900 -60 Descending Cleveland Center
09:16PM 41.3533 -81.9689 28° Northeast 192 221 8,900 -240 Level Cleveland Center
09:17PM 41.4100 -81.9314 26° Northeast 204 235 8,400 -660 Descending Cleveland Center
09:18PM 41.4539 -81.9131 17° North 205 236 7,700 -1,560 Descending Cleveland Center
09:19PM 41.5147 -81.8808 22° Northeast 219 252 5,500 -1,860 Descending Cleveland Center
09:20PM 41.5572 -81.8292 42° Northeast 242 278 3,800 -1,320 Descending Cleveland Center
09:21PM 41.5767 -81.7433 73° East 220 253 2,900 -1,140 Descending Cleveland Center
09:22PM 41.5711 -81.6794 97° East 196 226 1,700 -960 Descending Cleveland Center
09:23PM 41.5381 -81.6539 150° Southeast 117 135 1,100 -600 Descending Cleveland Center
09:25PM 41.5167 -81.6667 217° Southwest  Level FlightAware Approximate